Terminal Aerodrome Forecast
Issued by NWS

Home | Current Version | Previous Version | Text Only | Print | Product List | Glossary On
Versions: 1 2 3 4 5 6 7 8 9 10 11 12 13 14 15 16 17 18 19 20
000
FTAK31 PAFA 252339
TAFAOT
TAF
PAOT 252339Z 2600/2624 29005KT P6SM SCT015
     FM260900 15003KT 3SM BR BKN008
     FM261700 18006KT P6SM BKN015=

USA.gov is the U.S. government's official web portal to all federal, state and local government web resources and services.